createdAt,value
2023-03-27T00:00:02.610Z,0
2023-03-27T00:15:03.081Z,0
2023-03-27T00:30:02.518Z,0
2023-03-27T00:45:02.964Z,0
2023-03-27T01:00:02.481Z,0
2023-03-27T01:15:02.877Z,0
2023-03-27T01:30:02.476Z,0
2023-03-27T01:45:02.745Z,0
2023-03-27T02:00:18.144Z,0
2023-03-27T02:15:24.448Z,0
2023-03-27T02:30:03.048Z,0
2023-03-27T02:45:02.487Z,0
2023-03-27T03:00:02.945Z,0
2023-03-27T03:15:02.511Z,0
2023-03-27T03:30:02.830Z,0
2023-03-27T03:45:02.250Z,0
2023-03-27T04:00:02.683Z,0
2023-03-27T04:15:03.109Z,0
2023-03-27T04:30:02.560Z,0
2023-03-27T04:45:02.969Z,0
2023-03-27T05:00:02.524Z,0
2023-03-27T05:15:02.887Z,0
2023-03-27T05:30:02.564Z,2
2023-03-27T05:45:02.755Z,13
2023-03-27T06:00:03.196Z,21
2023-03-27T06:15:02.645Z,45
2023-03-27T06:30:03.083Z,128
2023-03-27T06:45:02.543Z,203
2023-03-27T07:00:02.990Z,192
2023-03-27T07:15:02.552Z,246
2023-03-27T07:30:02.810Z,265
2023-03-27T07:45:04.445Z,309
2023-03-27T08:00:02.714Z,204
2023-03-27T08:15:03.128Z,380
2023-03-27T08:30:02.553Z,119
2023-03-27T08:45:03.038Z,427
2023-03-27T09:00:02.566Z,480
2023-03-27T09:15:02.919Z,223
2023-03-27T09:30:05.880Z,155
2023-03-27T09:45:02.789Z,220
2023-03-27T10:00:03.223Z,190
2023-03-27T10:15:02.672Z,282
2023-03-27T10:30:03.135Z,594
2023-03-27T10:45:02.573Z,578
2023-03-27T11:00:03.001Z,149
2023-03-27T11:15:02.569Z,590
2023-03-27T11:30:02.871Z,629
2023-03-27T11:45:02.299Z,223
2023-03-27T12:00:02.748Z,432
2023-03-27T12:15:03.203Z,131
2023-03-27T12:30:02.621Z,557
2023-03-27T12:45:03.037Z,168
2023-03-27T13:00:02.603Z,618
2023-03-27T13:15:02.909Z,551
2023-03-27T13:30:02.660Z,79
2023-03-27T13:45:02.816Z,478
2023-03-27T14:00:02.253Z,456
2023-03-27T14:15:02.684Z,451
2023-03-27T14:30:03.160Z,370
2023-03-27T14:45:02.620Z,218
2023-03-27T15:00:03.017Z,316
2023-03-27T15:15:02.629Z,115
2023-03-27T15:30:02.903Z,347
2023-03-27T15:45:02.330Z,276
2023-03-27T16:00:02.771Z,34
2023-03-27T16:15:05.943Z,181
2023-03-27T16:30:02.655Z,132
2023-03-27T16:45:03.060Z,94
2023-03-27T17:00:02.658Z,15
2023-03-27T17:15:02.976Z,24
2023-03-27T17:30:02.404Z,7
2023-03-27T17:45:02.836Z,0
2023-03-27T18:00:03.142Z,0
2023-03-27T18:15:02.754Z,0
2023-03-27T18:30:02.163Z,0
2023-03-27T18:45:02.667Z,0
2023-03-27T19:00:03.019Z,0
2023-03-27T19:15:13.305Z,0
2023-03-27T19:30:02.913Z,0
2023-03-27T19:45:02.347Z,0
2023-03-27T20:00:02.800Z,0
2023-03-27T20:15:11.826Z,0
2023-03-27T20:30:02.680Z,0
2023-03-27T20:45:03.104Z,0
2023-03-27T21:00:02.701Z,0
2023-03-27T21:15:02.963Z,0
2023-03-27T21:30:02.453Z,0
2023-03-27T21:45:02.871Z,0
2023-03-27T22:00:02.333Z,0
2023-03-27T22:15:02.755Z,0
2023-03-27T22:30:02.165Z,0
2023-03-27T22:45:02.712Z,0
2023-03-27T23:00:03.035Z,0
2023-03-27T23:15:02.692Z,0
2023-03-27T23:30:02.934Z,0
2023-03-27T23:45:02.344Z,0
